sensor_id;sensor_type;location;lat;lon;timestamp;temperature;humidity
23540;DHT22;11947;50.810;4.394;2023-05-16T00:00:14;10.30;99.90
23540;DHT22;11947;50.810;4.394;2023-05-16T00:02:40;10.30;99.90
23540;DHT22;11947;50.810;4.394;2023-05-16T00:05:06;10.30;99.90
23540;DHT22;11947;50.810;4.394;2023-05-16T00:07:33;10.30;99.90
23540;DHT22;11947;50.810;4.394;2023-05-16T00:09:59;10.30;99.90
23540;DHT22;11947;50.810;4.394;2023-05-16T00:12:25;10.20;99.90
23540;DHT22;11947;50.810;4.394;2023-05-16T00:14:51;10.20;99.90
23540;DHT22;11947;50.810;4.394;2023-05-16T00:17:18;10.10;99.90
23540;DHT22;11947;50.810;4.394;2023-05-16T00:19:45;10.00;99.90
23540;DHT22;11947;50.810;4.394;2023-05-16T00:22:13;9.90;99.90
23540;DHT22;11947;50.810;4.394;2023-05-16T00:24:40;9.90;99.90
23540;DHT22;11947;50.810;4.394;2023-05-16T00:27:06;9.80;99.90
23540;DHT22;11947;50.810;4.394;2023-05-16T00:29:35;10.00;99.90
23540;DHT22;11947;50.810;4.394;2023-05-16T00:32:00;9.80;99.90
23540;DHT22;11947;50.810;4.394;2023-05-16T00:34:26;9.80;99.90
23540;DHT22;11947;50.810;4.394;2023-05-16T00:36:52;9.70;99.90
23540;DHT22;11947;50.810;4.394;2023-05-16T00:39:18;9.70;99.90
23540;DHT22;11947;50.810;4.394;2023-05-16T00:41:44;9.60;99.90
23540;DHT22;11947;50.810;4.394;2023-05-16T00:44:10;9.70;99.90
23540;DHT22;11947;50.810;4.394;2023-05-16T00:46:36;9.70;99.90
23540;DHT22;11947;50.810;4.394;2023-05-16T00:49:02;9.50;99.90
23540;DHT22;11947;50.810;4.394;2023-05-16T00:51:28;9.50;99.90
23540;DHT22;11947;50.810;4.394;2023-05-16T00:53:55;9.40;99.90
23540;DHT22;11947;50.810;4.394;2023-05-16T00:56:21;9.50;99.90
23540;DHT22;11947;50.810;4.394;2023-05-16T00:58:47;9.40;99.90
23540;DHT22;11947;50.810;4.394;2023-05-16T01:01:13;9.40;99.90
23540;DHT22;11947;50.810;4.394;2023-05-16T01:03:39;9.30;99.90
23540;DHT22;11947;50.810;4.394;2023-05-16T01:06:06;9.40;99.90
23540;DHT22;11947;50.810;4.394;2023-05-16T01:08:32;9.40;99.90
23540;DHT22;11947;50.810;4.394;2023-05-16T01:11:10;9.40;99.90
23540;DHT22;11947;50.810;4.394;2023-05-16T01:28:01;9.20;99.90
23540;DHT22;11947;50.810;4.394;2023-05-16T01:30:32;9.10;99.90
23540;DHT22;11947;50.810;4.394;2023-05-16T01:32:59;9.20;99.90
23540;DHT22;11947;50.810;4.394;2023-05-16T01:35:25;9.20;99.90
23540;DHT22;11947;50.810;4.394;2023-05-16T01:38:10;9.20;99.90
23540;DHT22;11947;50.810;4.394;2023-05-16T01:40:49;9.20;99.90
23540;DHT22;11947;50.810;4.394;2023-05-16T01:43:29;9.10;99.90
23540;DHT22;11947;50.810;4.394;2023-05-16T01:46:03;9.10;99.90
23540;DHT22;11947;50.810;4.394;2023-05-16T01:48:57;9.00;99.90
23540;DHT22;11947;50.810;4.394;2023-05-16T01:51:28;9.00;99.90
23540;DHT22;11947;50.810;4.394;2023-05-16T01:53:59;9.00;99.90
23540;DHT22;11947;50.810;4.394;2023-05-16T01:56:27;9.00;99.90
23540;DHT22;11947;50.810;4.394;2023-05-16T01:58:54;9.00;99.90
23540;DHT22;11947;50.810;4.394;2023-05-16T02:01:22;9.00;99.90
23540;DHT22;11947;50.810;4.394;2023-05-16T02:03:47;8.90;99.90
23540;DHT22;11947;50.810;4.394;2023-05-16T02:06:13;8.90;99.90
23540;DHT22;11947;50.810;4.394;2023-05-16T02:08:39;8.80;99.90
23540;DHT22;11947;50.810;4.394;2023-05-16T02:11:04;8.90;99.90
23540;DHT22;11947;50.810;4.394;2023-05-16T02:13:30;8.80;99.90
23540;DHT22;11947;50.810;4.394;2023-05-16T02:15:56;8.90;99.90
23540;DHT22;11947;50.810;4.394;2023-05-16T02:18:21;8.90;99.90
23540;DHT22;11947;50.810;4.394;2023-05-16T02:20:48;9.00;99.90
23540;DHT22;11947;50.810;4.394;2023-05-16T02:23:14;9.00;99.90
23540;DHT22;11947;50.810;4.394;2023-05-16T02:25:40;8.90;99.90
23540;DHT22;11947;50.810;4.394;2023-05-16T02:28:05;8.90;99.90
23540;DHT22;11947;50.810;4.394;2023-05-16T02:30:31;8.80;99.90
23540;DHT22;11947;50.810;4.394;2023-05-16T02:32:57;8.80;99.90
23540;DHT22;11947;50.810;4.394;2023-05-16T02:35:23;8.80;99.90
23540;DHT22;11947;50.810;4.394;2023-05-16T02:37:48;8.80;99.90
23540;DHT22;11947;50.810;4.394;2023-05-16T02:40:14;8.90;99.90
23540;DHT22;11947;50.810;4.394;2023-05-16T02:42:40;8.70;99.90
23540;DHT22;11947;50.810;4.394;2023-05-16T02:45:05;8.80;99.90
23540;DHT22;11947;50.810;4.394;2023-05-16T02:47:31;8.80;99.90
23540;DHT22;11947;50.810;4.394;2023-05-16T02:49:57;8.80;99.90
23540;DHT22;11947;50.810;4.394;2023-05-16T02:52:22;8.80;99.90
23540;DHT22;11947;50.810;4.394;2023-05-16T02:54:48;8.70;99.90
23540;DHT22;11947;50.810;4.394;2023-05-16T02:57:14;8.70;99.90
23540;DHT22;11947;50.810;4.394;2023-05-16T02:59:39;8.80;99.90
23540;DHT22;11947;50.810;4.394;2023-05-16T03:02:07;8.60;99.90
23540;DHT22;11947;50.810;4.394;2023-05-16T03:04:33;8.60;99.90
23540;DHT22;11947;50.810;4.394;2023-05-16T03:06:59;8.60;99.90
23540;DHT22;11947;50.810;4.394;2023-05-16T03:09:24;8.60;99.90
23540;DHT22;11947;50.810;4.394;2023-05-16T03:11:50;8.60;99.90
23540;DHT22;11947;50.810;4.394;2023-05-16T03:14:16;8.60;99.90
23540;DHT22;11947;50.810;4.394;2023-05-16T03:16:41;8.70;99.90
23540;DHT22;11947;50.810;4.394;2023-05-16T03:19:08;8.60;99.90
23540;DHT22;11947;50.810;4.394;2023-05-16T03:21:34;8.60;99.90
23540;DHT22;11947;50.810;4.394;2023-05-16T03:24:03;8.50;99.90
23540;DHT22;11947;50.810;4.394;2023-05-16T03:26:29;8.60;99.90
23540;DHT22;11947;50.810;4.394;2023-05-16T03:28:55;8.60;99.90
23540;DHT22;11947;50.810;4.394;2023-05-16T03:31:20;8.60;99.90
23540;DHT22;11947;50.810;4.394;2023-05-16T03:33:46;8.50;99.90
23540;DHT22;11947;50.810;4.394;2023-05-16T03:36:12;8.60;99.90
23540;DHT22;11947;50.810;4.394;2023-05-16T03:38:37;8.60;99.90
23540;DHT22;11947;50.810;4.394;2023-05-16T03:41:03;8.60;99.90
23540;DHT22;11947;50.810;4.394;2023-05-16T03:43:29;8.60;99.90
23540;DHT22;11947;50.810;4.394;2023-05-16T03:45:54;8.60;99.90
23540;DHT22;11947;50.810;4.394;2023-05-16T03:48:20;8.60;99.90
23540;DHT22;11947;50.810;4.394;2023-05-16T03:50:46;8.70;99.90
23540;DHT22;11947;50.810;4.394;2023-05-16T03:53:12;8.50;99.90
23540;DHT22;11947;50.810;4.394;2023-05-16T03:55:38;8.50;99.90
23540;DHT22;11947;50.810;4.394;2023-05-16T03:58:03;8.60;99.90
23540;DHT22;11947;50.810;4.394;2023-05-16T04:00:29;8.50;99.90
23540;DHT22;11947;50.810;4.394;2023-05-16T04:02:55;8.40;99.90
23540;DHT22;11947;50.810;4.394;2023-05-16T04:05:21;8.40;99.90
23540;DHT22;11947;50.810;4.394;2023-05-16T04:07:46;8.40;99.90
23540;DHT22;11947;50.810;4.394;2023-05-16T04:10:13;8.50;99.90
23540;DHT22;11947;50.810;4.394;2023-05-16T04:12:39;8.40;99.90
23540;DHT22;11947;50.810;4.394;2023-05-16T04:15:05;8.50;99.90
23540;DHT22;11947;50.810;4.394;2023-05-16T04:17:31;8.50;99.90
23540;DHT22;11947;50.810;4.394;2023-05-16T04:19:57;8.50;99.90
23540;DHT22;11947;50.810;4.394;2023-05-16T04:22:23;8.50;99.90
23540;DHT22;11947;50.810;4.394;2023-05-16T04:24:49;8.40;99.90
23540;DHT22;11947;50.810;4.394;2023-05-16T04:27:15;8.50;99.90
23540;DHT22;11947;50.810;4.394;2023-05-16T04:29:41;8.50;99.90
23540;DHT22;11947;50.810;4.394;2023-05-16T04:32:07;8.60;99.90
23540;DHT22;11947;50.810;4.394;2023-05-16T04:34:33;8.80;99.90
23540;DHT22;11947;50.810;4.394;2023-05-16T04:37:04;8.70;99.90
23540;DHT22;11947;50.810;4.394;2023-05-16T04:39:35;8.60;99.90
23540;DHT22;11947;50.810;4.394;2023-05-16T04:42:00;8.70;99.90
23540;DHT22;11947;50.810;4.394;2023-05-16T04:44:27;8.70;99.90
23540;DHT22;11947;50.810;4.394;2023-05-16T04:46:53;8.80;99.90
23540;DHT22;11947;50.810;4.394;2023-05-16T04:49:19;8.80;99.90
23540;DHT22;11947;50.810;4.394;2023-05-16T04:51:46;8.80;99.90
23540;DHT22;11947;50.810;4.394;2023-05-16T04:54:12;8.90;99.90
23540;DHT22;11947;50.810;4.394;2023-05-16T04:56:38;9.00;99.90
23540;DHT22;11947;50.810;4.394;2023-05-16T04:59:04;9.00;99.90
23540;DHT22;11947;50.810;4.394;2023-05-16T05:01:29;9.10;99.90
23540;DHT22;11947;50.810;4.394;2023-05-16T05:03:55;9.10;99.90
23540;DHT22;11947;50.810;4.394;2023-05-16T05:06:21;9.20;99.90
23540;DHT22;11947;50.810;4.394;2023-05-16T05:08:47;9.50;99.90
23540;DHT22;11947;50.810;4.394;2023-05-16T05:11:12;9.30;99.90
23540;DHT22;11947;50.810;4.394;2023-05-16T05:13:38;9.40;99.90
23540;DHT22;11947;50.810;4.394;2023-05-16T05:16:04;9.40;99.90
23540;DHT22;11947;50.810;4.394;2023-05-16T05:18:30;9.60;99.90
23540;DHT22;11947;50.810;4.394;2023-05-16T05:20:56;9.70;99.90
23540;DHT22;11947;50.810;4.394;2023-05-16T05:23:22;9.80;99.90
23540;DHT22;11947;50.810;4.394;2023-05-16T05:25:48;9.80;99.90
23540;DHT22;11947;50.810;4.394;2023-05-16T05:28:14;10.00;99.90
23540;DHT22;11947;50.810;4.394;2023-05-16T05:30:39;10.10;99.90
23540;DHT22;11947;50.810;4.394;2023-05-16T05:33:10;10.10;99.90
23540;DHT22;11947;50.810;4.394;2023-05-16T05:35:36;10.20;99.90
23540;DHT22;11947;50.810;4.394;2023-05-16T05:38:02;10.30;99.90
23540;DHT22;11947;50.810;4.394;2023-05-16T05:40:28;10.30;99.90
23540;DHT22;11947;50.810;4.394;2023-05-16T05:42:54;10.50;99.90
23540;DHT22;11947;50.810;4.394;2023-05-16T05:45:20;10.60;99.90
23540;DHT22;11947;50.810;4.394;2023-05-16T05:47:45;10.70;99.90
23540;DHT22;11947;50.810;4.394;2023-05-16T05:50:11;10.80;99.90
23540;DHT22;11947;50.810;4.394;2023-05-16T05:52:37;10.90;99.90
23540;DHT22;11947;50.810;4.394;2023-05-16T05:55:04;10.90;99.90
23540;DHT22;11947;50.810;4.394;2023-05-16T05:57:30;11.00;99.90
23540;DHT22;11947;50.810;4.394;2023-05-16T05:59:55;11.20;99.90
23540;DHT22;11947;50.810;4.394;2023-05-16T06:02:21;11.40;99.90
23540;DHT22;11947;50.810;4.394;2023-05-16T06:04:46;11.50;99.90
23540;DHT22;11947;50.810;4.394;2023-05-16T06:07:12;11.60;99.90
23540;DHT22;11947;50.810;4.394;2023-05-16T06:09:40;11.70;99.90
23540;DHT22;11947;50.810;4.394;2023-05-16T06:12:07;11.80;99.90
23540;DHT22;11947;50.810;4.394;2023-05-16T06:14:33;12.10;99.90
23540;DHT22;11947;50.810;4.394;2023-05-16T06:16:58;12.40;99.90
23540;DHT22;11947;50.810;4.394;2023-05-16T06:19:24;12.60;99.90
23540;DHT22;11947;50.810;4.394;2023-05-16T06:21:50;12.60;99.90
23540;DHT22;11947;50.810;4.394;2023-05-16T06:24:15;12.80;99.90
23540;DHT22;11947;50.810;4.394;2023-05-16T06:26:41;12.80;99.90
23540;DHT22;11947;50.810;4.394;2023-05-16T06:29:06;12.90;99.90
23540;DHT22;11947;50.810;4.394;2023-05-16T06:31:32;13.20;99.90
23540;DHT22;11947;50.810;4.394;2023-05-16T06:33:58;13.70;99.90
23540;DHT22;11947;50.810;4.394;2023-05-16T06:36:23;14.10;99.90
23540;DHT22;11947;50.810;4.394;2023-05-16T06:38:49;14.30;99.90
23540;DHT22;11947;50.810;4.394;2023-05-16T06:41:15;14.50;99.90
23540;DHT22;11947;50.810;4.394;2023-05-16T06:43:40;14.50;99.90
23540;DHT22;11947;50.810;4.394;2023-05-16T06:46:06;14.80;99.90
23540;DHT22;11947;50.810;4.394;2023-05-16T06:48:32;15.00;99.90
23540;DHT22;11947;50.810;4.394;2023-05-16T06:50:57;15.00;99.90
23540;DHT22;11947;50.810;4.394;2023-05-16T06:53:23;15.20;99.90
23540;DHT22;11947;50.810;4.394;2023-05-16T06:55:49;15.10;99.90
23540;DHT22;11947;50.810;4.394;2023-05-16T06:58:15;14.90;99.90
23540;DHT22;11947;50.810;4.394;2023-05-16T07:00:41;14.80;99.90
23540;DHT22;11947;50.810;4.394;2023-05-16T07:03:08;14.40;99.90
23540;DHT22;11947;50.810;4.394;2023-05-16T07:05:34;14.30;99.90
23540;DHT22;11947;50.810;4.394;2023-05-16T07:08:00;14.20;99.90
23540;DHT22;11947;50.810;4.394;2023-05-16T07:10:25;14.20;99.90
23540;DHT22;11947;50.810;4.394;2023-05-16T07:12:51;14.30;99.90
23540;DHT22;11947;50.810;4.394;2023-05-16T07:15:17;14.20;99.90
23540;DHT22;11947;50.810;4.394;2023-05-16T07:17:43;14.30;99.90
23540;DHT22;11947;50.810;4.394;2023-05-16T07:20:08;14.30;99.90
23540;DHT22;11947;50.810;4.394;2023-05-16T07:22:38;14.50;99.90
23540;DHT22;11947;50.810;4.394;2023-05-16T07:25:04;14.80;99.90
23540;DHT22;11947;50.810;4.394;2023-05-16T07:27:30;14.90;99.90
23540;DHT22;11947;50.810;4.394;2023-05-16T07:29:56;14.90;99.90
23540;DHT22;11947;50.810;4.394;2023-05-16T07:32:22;15.00;99.90
23540;DHT22;11947;50.810;4.394;2023-05-16T07:34:47;15.10;99.90
23540;DHT22;11947;50.810;4.394;2023-05-16T07:37:13;14.90;99.90
23540;DHT22;11947;50.810;4.394;2023-05-16T07:39:40;14.90;99.90
23540;DHT22;11947;50.810;4.394;2023-05-16T07:42:07;14.90;99.90
23540;DHT22;11947;50.810;4.394;2023-05-16T07:44:33;14.90;99.90
23540;DHT22;11947;50.810;4.394;2023-05-16T07:46:59;15.20;99.90
23540;DHT22;11947;50.810;4.394;2023-05-16T07:49:25;15.20;99.90
23540;DHT22;11947;50.810;4.394;2023-05-16T07:51:50;15.00;99.90
23540;DHT22;11947;50.810;4.394;2023-05-16T07:54:16;15.00;99.90
23540;DHT22;11947;50.810;4.394;2023-05-16T07:56:42;15.00;99.90
23540;DHT22;11947;50.810;4.394;2023-05-16T07:59:08;15.00;99.90
23540;DHT22;11947;50.810;4.394;2023-05-16T08:01:34;15.00;99.90
23540;DHT22;11947;50.810;4.394;2023-05-16T08:03:59;15.00;99.90
23540;DHT22;11947;50.810;4.394;2023-05-16T08:06:25;15.20;99.90
23540;DHT22;11947;50.810;4.394;2023-05-16T08:08:51;15.40;99.90
23540;DHT22;11947;50.810;4.394;2023-05-16T08:11:18;15.80;99.90
23540;DHT22;11947;50.810;4.394;2023-05-16T08:13:44;16.00;99.90
23540;DHT22;11947;50.810;4.394;2023-05-16T08:16:09;16.40;99.90
23540;DHT22;11947;50.810;4.394;2023-05-16T08:18:36;16.50;99.90
23540;DHT22;11947;50.810;4.394;2023-05-16T08:21:01;16.60;99.90
23540;DHT22;11947;50.810;4.394;2023-05-16T08:23:27;16.50;99.90
23540;DHT22;11947;50.810;4.394;2023-05-16T08:25:53;16.40;99.90
23540;DHT22;11947;50.810;4.394;2023-05-16T08:28:19;16.50;99.90
23540;DHT22;11947;50.810;4.394;2023-05-16T08:30:44;16.30;99.90
23540;DHT22;11947;50.810;4.394;2023-05-16T08:33:10;15.90;99.90
23540;DHT22;11947;50.810;4.394;2023-05-16T08:35:36;15.70;99.90
23540;DHT22;11947;50.810;4.394;2023-05-16T08:38:01;15.70;99.90
23540;DHT22;11947;50.810;4.394;2023-05-16T08:40:28;16.00;99.90
23540;DHT22;11947;50.810;4.394;2023-05-16T08:42:53;16.50;99.90
23540;DHT22;11947;50.810;4.394;2023-05-16T08:45:21;16.80;99.90
23540;DHT22;11947;50.810;4.394;2023-05-16T08:47:48;16.90;99.90
23540;DHT22;11947;50.810;4.394;2023-05-16T08:50:15;17.10;99.90
23540;DHT22;11947;50.810;4.394;2023-05-16T08:52:42;17.50;99.90
23540;DHT22;11947;50.810;4.394;2023-05-16T08:55:08;17.70;99.90
23540;DHT22;11947;50.810;4.394;2023-05-16T08:57:34;17.80;99.90
23540;DHT22;11947;50.810;4.394;2023-05-16T09:00:01;18.10;99.90
23540;DHT22;11947;50.810;4.394;2023-05-16T09:02:39;18.50;99.90
23540;DHT22;11947;50.810;4.394;2023-05-16T09:05:08;18.50;99.90
23540;DHT22;11947;50.810;4.394;2023-05-16T09:07:34;18.30;99.90
23540;DHT22;11947;50.810;4.394;2023-05-16T09:09:59;18.10;99.90
23540;DHT22;11947;50.810;4.394;2023-05-16T09:12:25;18.20;99.90
23540;DHT22;11947;50.810;4.394;2023-05-16T09:14:51;18.30;99.90
23540;DHT22;11947;50.810;4.394;2023-05-16T09:17:16;18.60;99.90
23540;DHT22;11947;50.810;4.394;2023-05-16T09:19:43;18.80;99.90
23540;DHT22;11947;50.810;4.394;2023-05-16T09:22:13;19.50;99.90
23540;DHT22;11947;50.810;4.394;2023-05-16T09:27:15;20.10;99.90
23540;DHT22;11947;50.810;4.394;2023-05-16T09:29:42;20.10;99.90
23540;DHT22;11947;50.810;4.394;2023-05-16T09:32:15;20.10;99.90
23540;DHT22;11947;50.810;4.394;2023-05-16T09:34:48;20.70;99.90
23540;DHT22;11947;50.810;4.394;2023-05-16T09:37:16;20.70;99.90
23540;DHT22;11947;50.810;4.394;2023-05-16T09:39:50;20.30;99.90
23540;DHT22;11947;50.810;4.394;2023-05-16T09:42:18;19.80;99.90
23540;DHT22;11947;50.810;4.394;2023-05-16T09:44:52;19.80;99.90
23540;DHT22;11947;50.810;4.394;2023-05-16T09:47:19;19.70;99.90
23540;DHT22;11947;50.810;4.394;2023-05-16T09:49:46;19.20;99.90
23540;DHT22;11947;50.810;4.394;2023-05-16T09:52:13;18.80;99.90
23540;DHT22;11947;50.810;4.394;2023-05-16T09:54:39;19.10;99.90
23540;DHT22;11947;50.810;4.394;2023-05-16T09:57:05;19.60;99.90
23540;DHT22;11947;50.810;4.394;2023-05-16T09:59:37;20.10;99.90
23540;DHT22;11947;50.810;4.394;2023-05-16T10:02:05;20.70;99.90
23540;DHT22;11947;50.810;4.394;2023-05-16T10:04:33;21.10;99.90
23540;DHT22;11947;50.810;4.394;2023-05-16T10:07:02;21.90;99.90
23540;DHT22;11947;50.810;4.394;2023-05-16T10:09:33;22.60;99.90
23540;DHT22;11947;50.810;4.394;2023-05-16T10:12:03;22.80;99.90
23540;DHT22;11947;50.810;4.394;2023-05-16T10:14:35;23.70;99.90
23540;DHT22;11947;50.810;4.394;2023-05-16T10:17:03;24.40;99.90
23540;DHT22;11947;50.810;4.394;2023-05-16T10:19:31;25.90;97.60
23540;DHT22;11947;50.810;4.394;2023-05-16T10:21:59;26.30;94.50
23540;DHT22;11947;50.810;4.394;2023-05-16T10:24:36;25.80;95.20
23540;DHT22;11947;50.810;4.394;2023-05-16T10:27:03;26.10;93.60
23540;DHT22;11947;50.810;4.394;2023-05-16T10:29:30;27.10;91.40
23540;DHT22;11947;50.810;4.394;2023-05-16T10:31:57;28.60;89.70
23540;DHT22;11947;50.810;4.394;2023-05-16T10:34:24;30.10;81.70
23540;DHT22;11947;50.810;4.394;2023-05-16T10:36:50;29.10;79.30
23540;DHT22;11947;50.810;4.394;2023-05-16T10:39:16;27.90;77.90
23540;DHT22;11947;50.810;4.394;2023-05-16T10:41:42;26.50;82.30
23540;DHT22;11947;50.810;4.394;2023-05-16T10:44:14;26.30;86.20
23540;DHT22;11947;50.810;4.394;2023-05-16T10:46:43;28.30;83.40
23540;DHT22;11947;50.810;4.394;2023-05-16T10:49:22;29.40;74.80
23540;DHT22;11947;50.810;4.394;2023-05-16T10:52:02;28.50;76.40
23540;DHT22;11947;50.810;4.394;2023-05-16T10:54:37;28.50;78.10
23540;DHT22;11947;50.810;4.394;2023-05-16T10:57:05;28.40;77.40
23540;DHT22;11947;50.810;4.394;2023-05-16T10:59:45;26.90;76.90
23540;DHT22;11947;50.810;4.394;2023-05-16T11:02:30;25.80;77.90
23540;DHT22;11947;50.810;4.394;2023-05-16T11:05:00;24.50;81.60
23540;DHT22;11947;50.810;4.394;2023-05-16T11:07:32;24.90;81.20
23540;DHT22;11947;50.810;4.394;2023-05-16T11:10:02;25.80;78.30
23540;DHT22;11947;50.810;4.394;2023-05-16T11:12:48;28.00;77.20
23540;DHT22;11947;50.810;4.394;2023-05-16T11:15:24;30.70;71.20
23540;DHT22;11947;50.810;4.394;2023-05-16T11:18:07;31.20;69.30
23540;DHT22;11947;50.810;4.394;2023-05-16T11:20:36;30.60;68.30
23540;DHT22;11947;50.810;4.394;2023-05-16T11:26:03;29.30;69.40
23540;DHT22;11947;50.810;4.394;2023-05-16T11:28:29;29.90;72.70
23540;DHT22;11947;50.810;4.394;2023-05-16T11:30:57;30.90;65.90
23540;DHT22;11947;50.810;4.394;2023-05-16T11:33:24;29.60;64.80
23540;DHT22;11947;50.810;4.394;2023-05-16T11:36:03;28.20;68.40
23540;DHT22;11947;50.810;4.394;2023-05-16T11:38:31;26.60;72.50
23540;DHT22;11947;50.810;4.394;2023-05-16T11:41:07;25.30;74.50
23540;DHT22;11947;50.810;4.394;2023-05-16T11:43:41;24.40;77.00
23540;DHT22;11947;50.810;4.394;2023-05-16T11:46:12;24.10;77.90
23540;DHT22;11947;50.810;4.394;2023-05-16T11:48:38;23.60;80.60
23540;DHT22;11947;50.810;4.394;2023-05-16T11:51:04;23.30;80.60
23540;DHT22;11947;50.810;4.394;2023-05-16T11:53:29;23.50;83.70
23540;DHT22;11947;50.810;4.394;2023-05-16T11:55:55;25.10;80.50
23540;DHT22;11947;50.810;4.394;2023-05-16T11:58:21;26.10;74.10
23540;DHT22;11947;50.810;4.394;2023-05-16T12:00:50;26.30;74.20
23540;DHT22;11947;50.810;4.394;2023-05-16T12:03:17;25.50;80.00
23540;DHT22;11947;50.810;4.394;2023-05-16T12:05:51;24.10;79.10
23540;DHT22;11947;50.810;4.394;2023-05-16T12:08:18;23.40;80.80
23540;DHT22;11947;50.810;4.394;2023-05-16T12:10:45;23.50;80.40
23540;DHT22;11947;50.810;4.394;2023-05-16T12:13:11;24.40;81.20
23540;DHT22;11947;50.810;4.394;2023-05-16T12:15:36;26.50;76.60
23540;DHT22;11947;50.810;4.394;2023-05-16T12:18:02;26.40;77.20
23540;DHT22;11947;50.810;4.394;2023-05-16T12:20:28;25.70;75.30
23540;DHT22;11947;50.810;4.394;2023-05-16T12:22:56;24.90;77.70
23540;DHT22;11947;50.810;4.394;2023-05-16T12:25:29;25.60;77.30
23540;DHT22;11947;50.810;4.394;2023-05-16T12:27:57;28.30;75.40
23540;DHT22;11947;50.810;4.394;2023-05-16T12:30:27;29.60;72.20
23540;DHT22;11947;50.810;4.394;2023-05-16T12:33:01;29.40;69.50
23540;DHT22;11947;50.810;4.394;2023-05-16T12:35:32;29.90;65.90
23540;DHT22;11947;50.810;4.394;2023-05-16T12:37:58;29.40;68.10
23540;DHT22;11947;50.810;4.394;2023-05-16T12:40:28;29.30;66.20
23540;DHT22;11947;50.810;4.394;2023-05-16T12:42:54;30.60;62.90
23540;DHT22;11947;50.810;4.394;2023-05-16T12:45:21;30.70;63.90
23540;DHT22;11947;50.810;4.394;2023-05-16T12:47:47;32.00;65.00
23540;DHT22;11947;50.810;4.394;2023-05-16T12:50:14;32.70;59.20
23540;DHT22;11947;50.810;4.394;2023-05-16T12:52:47;32.20;58.20
23540;DHT22;11947;50.810;4.394;2023-05-16T12:55:21;31.50;57.60
23540;DHT22;11947;50.810;4.394;2023-05-16T12:57:47;31.00;63.30
23540;DHT22;11947;50.810;4.394;2023-05-16T13:00:15;31.90;62.10
23540;DHT22;11947;50.810;4.394;2023-05-16T13:02:46;33.40;58.50
23540;DHT22;11947;50.810;4.394;2023-05-16T13:05:14;32.20;58.20
23540;DHT22;11947;50.810;4.394;2023-05-16T13:07:40;30.50;61.80
23540;DHT22;11947;50.810;4.394;2023-05-16T13:10:07;30.40;59.40
23540;DHT22;11947;50.810;4.394;2023-05-16T13:12:37;29.70;60.90
23540;DHT22;11947;50.810;4.394;2023-05-16T13:15:07;28.50;60.00
23540;DHT22;11947;50.810;4.394;2023-05-16T13:17:37;27.30;62.70
23540;DHT22;11947;50.810;4.394;2023-05-16T13:20:04;26.50;63.50
23540;DHT22;11947;50.810;4.394;2023-05-16T13:22:34;26.60;66.80
23540;DHT22;11947;50.810;4.394;2023-05-16T13:25:01;28.00;66.30
23540;DHT22;11947;50.810;4.394;2023-05-16T13:27:26;28.60;61.70
23540;DHT22;11947;50.810;4.394;2023-05-16T13:29:52;29.10;61.60
23540;DHT22;11947;50.810;4.394;2023-05-16T13:32:18;28.00;60.60
23540;DHT22;11947;50.810;4.394;2023-05-16T13:34:43;27.20;66.10
23540;DHT22;11947;50.810;4.394;2023-05-16T13:37:09;28.10;62.70
23540;DHT22;11947;50.810;4.394;2023-05-16T13:39:35;30.30;59.30
23540;DHT22;11947;50.810;4.394;2023-05-16T13:42:00;32.40;58.80
23540;DHT22;11947;50.810;4.394;2023-05-16T13:44:27;34.20;55.10
23540;DHT22;11947;50.810;4.394;2023-05-16T13:46:53;34.10;53.90
23540;DHT22;11947;50.810;4.394;2023-05-16T13:49:19;32.90;55.20
23540;DHT22;11947;50.810;4.394;2023-05-16T13:51:45;31.70;57.70
23540;DHT22;11947;50.810;4.394;2023-05-16T13:54:11;31.00;57.90
23540;DHT22;11947;50.810;4.394;2023-05-16T13:56:37;28.70;58.70
23540;DHT22;11947;50.810;4.394;2023-05-16T13:59:02;27.40;62.50
23540;DHT22;11947;50.810;4.394;2023-05-16T14:01:28;27.80;62.90
23540;DHT22;11947;50.810;4.394;2023-05-16T14:03:54;28.30;61.60
23540;DHT22;11947;50.810;4.394;2023-05-16T14:06:20;27.40;60.50
23540;DHT22;11947;50.810;4.394;2023-05-16T14:08:46;26.30;67.00
23540;DHT22;11947;50.810;4.394;2023-05-16T14:11:12;26.50;64.30
23540;DHT22;11947;50.810;4.394;2023-05-16T14:13:37;27.00;63.40
23540;DHT22;11947;50.810;4.394;2023-05-16T14:16:05;28.30;63.10
23540;DHT22;11947;50.810;4.394;2023-05-16T14:18:31;28.30;61.20
23540;DHT22;11947;50.810;4.394;2023-05-16T14:20:57;27.20;63.00
23540;DHT22;11947;50.810;4.394;2023-05-16T14:23:23;26.30;64.80
23540;DHT22;11947;50.810;4.394;2023-05-16T14:25:49;25.30;65.10
23540;DHT22;11947;50.810;4.394;2023-05-16T14:28:15;24.00;69.30
23540;DHT22;11947;50.810;4.394;2023-05-16T14:30:41;23.00;72.60
23540;DHT22;11947;50.810;4.394;2023-05-16T14:33:06;22.30;75.50
23540;DHT22;11947;50.810;4.394;2023-05-16T14:35:32;21.90;73.20
23540;DHT22;11947;50.810;4.394;2023-05-16T14:37:58;21.30;74.80
23540;DHT22;11947;50.810;4.394;2023-05-16T14:40:23;20.90;77.90
23540;DHT22;11947;50.810;4.394;2023-05-16T14:42:49;20.80;76.90
23540;DHT22;11947;50.810;4.394;2023-05-16T14:45:15;20.50;81.50
23540;DHT22;11947;50.810;4.394;2023-05-16T14:47:41;20.20;80.90
23540;DHT22;11947;50.810;4.394;2023-05-16T14:50:07;20.20;80.10
23540;DHT22;11947;50.810;4.394;2023-05-16T14:52:33;19.80;80.10
23540;DHT22;11947;50.810;4.394;2023-05-16T14:54:59;20.00;82.20
23540;DHT22;11947;50.810;4.394;2023-05-16T14:57:25;20.30;84.30
23540;DHT22;11947;50.810;4.394;2023-05-16T14:59:51;20.50;80.40
23540;DHT22;11947;50.810;4.394;2023-05-16T15:02:16;20.60;82.40
23540;DHT22;11947;50.810;4.394;2023-05-16T15:04:42;20.60;78.00
23540;DHT22;11947;50.810;4.394;2023-05-16T15:07:08;20.50;79.00
23540;DHT22;11947;50.810;4.394;2023-05-16T15:09:33;20.20;81.40
23540;DHT22;11947;50.810;4.394;2023-05-16T15:11:59;19.80;82.40
23540;DHT22;11947;50.810;4.394;2023-05-16T15:14:26;19.70;81.10
23540;DHT22;11947;50.810;4.394;2023-05-16T15:16:51;19.50;80.60
23540;DHT22;11947;50.810;4.394;2023-05-16T15:19:17;19.20;82.00
23540;DHT22;11947;50.810;4.394;2023-05-16T15:21:43;19.10;83.90
23540;DHT22;11947;50.810;4.394;2023-05-16T15:24:08;19.00;81.40
23540;DHT22;11947;50.810;4.394;2023-05-16T15:26:34;18.80;82.10
23540;DHT22;11947;50.810;4.394;2023-05-16T15:29:00;18.70;82.90
23540;DHT22;11947;50.810;4.394;2023-05-16T15:31:25;18.50;85.10
23540;DHT22;11947;50.810;4.394;2023-05-16T15:33:51;18.40;86.00
23540;DHT22;11947;50.810;4.394;2023-05-16T15:36:17;18.30;84.60
23540;DHT22;11947;50.810;4.394;2023-05-16T15:38:42;18.20;88.20
23540;DHT22;11947;50.810;4.394;2023-05-16T15:41:10;17.70;87.90
23540;DHT22;11947;50.810;4.394;2023-05-16T15:43:36;17.50;90.10
23540;DHT22;11947;50.810;4.394;2023-05-16T15:46:02;17.30;89.90
23540;DHT22;11947;50.810;4.394;2023-05-16T15:48:27;17.00;90.10
23540;DHT22;11947;50.810;4.394;2023-05-16T15:50:53;16.90;90.40
23540;DHT22;11947;50.810;4.394;2023-05-16T15:53:19;16.90;91.10